Flight Track Log - Related Links

Times and Time Zones

All times are in EDT time to prevent confusion due to time zone crossing. See the N44566 flight status page for this flight to view local times or setup timezone preferences in your user account.

Time Position Orientation Groundspeed Altitude Reporting Facility
EDT Latitude Longitude Course Direction KTS MPH feet Rate Location/Type
Thu 05:16:00 PM 38.9049 -75.1472 24° Northeast  Level FlightAware Approximate
Thu 05:17:00 PM 38.9342 -75.1305 24° Northeast  Level FlightAware Approximate
Thu 05:18:00 PM 38.9635 -75.1137 24° Northeast  Level FlightAware Approximate
Thu 05:19:00 PM 38.9929 -75.0970 24° Northeast  Level FlightAware Approximate
Thu 05:20:00 PM 39.0214 -75.0786 38° Northeast  Level FlightAware Approximate
Thu 05:21:00 PM 39.0490 -75.0582 23° Northeast  Level FlightAware Approximate
Thu 05:21:49 PM 38.9622 -75.1192 23° Northeast 117 135 5,300  Level Washington Center
Thu 05:22:00 PM 39.0786 -75.0423 23° Northeast  Level FlightAware Approximate
Thu 05:23:00 PM 39.1082 -75.0264 23° Northeast  Level FlightAware Approximate
Thu 05:23:00 PM 38.9903 -75.0864 23° Northeast  Level Estimated
Thu 05:24:00 PM 39.1379 -75.0105 23° Northeast  Level FlightAware Approximate
Thu 05:25:00 PM 39.1675 -74.9945 23° Northeast  Level FlightAware Approximate
Thu 05:25:50 PM 39.0747 -75.0542 21° North 113 130 6,500  Level Washington Center
Thu 05:26:00 PM 39.1971 -74.9786 23° Northeast  Level FlightAware Approximate
Thu 05:27:00 PM 39.2267 -74.9626 23° Northeast  Level FlightAware Approximate
Thu 05:27:00 PM 39.1087 -75.0340 25° Northeast  Level FlightAware Approximate
Thu 05:29:50 PM 39.1828 -74.9811 36° Northeast 129 148 7,200  Level Washington Center
Thu 05:30:00 PM 39.1566 -74.8918 36° Northeast  Level Estimated
Thu 05:31:00 PM 39.1864 -74.8766 21° North  Level FlightAware Approximate
Thu 05:31:00 PM 39.2143 -74.9550 33° Northeast  Level FlightAware Approximate
Thu 05:33:51 PM 39.3008 -74.8861 33° Northeast 128 147 6,900  Level Washington Center
Thu 05:34:00 PM 39.2721 -74.9295 36° Northeast  Level FlightAware Approximate
Thu 05:35:00 PM 39.2981 -74.9052 36° Northeast  Level FlightAware Approximate
Thu 05:35:00 PM 39.3317 -74.8599 33° Northeast  Level FlightAware Approximate
Thu 05:37:51 PM 39.4211 -74.7856 213° Southwest 133 153 6,900  Level Washington Center
Thu 05:38:00 PM 39.4031 -74.7978 33° Northeast  Level FlightAware Approximate
Thu 05:39:00 PM 39.4300 -74.7752 33° Northeast  Level FlightAware Approximate
Thu 05:39:00 PM 39.4511 -74.7577 36° Northeast  Level FlightAware Approximate
Thu 05:42:00 PM 39.5193 -74.7002 33° Northeast  Level FlightAware Approximate
Thu 05:43:00 PM 39.4925 -74.7230 213° Southwest  Level FlightAware Approximate
Thu 05:46:00 PM 39.6072 -74.5483 34° Northeast  Level Estimated
Thu 05:47:00 PM 39.6361 -74.5302 26° Northeast  Level FlightAware Approximate
Thu 05:48:00 PM 39.6650 -74.5121 26° Northeast  Level FlightAware Approximate
Thu 05:49:00 PM 39.6939 -74.4939 26° Northeast  Level FlightAware Approximate
Thu 05:50:00 PM 39.7227 -74.4758 26° Northeast  Level FlightAware Approximate
Thu 05:51:00 PM 39.7444 -74.4450 35° Northeast  Level Estimated
Thu 05:52:00 PM 39.7721 -74.4239 30° Northeast  Level FlightAware Approximate
Thu 05:53:00 PM 39.7998 -74.4029 30° Northeast  Level FlightAware Approximate
Thu 05:54:00 PM 39.8274 -74.3818 30° Northeast  Level FlightAware Approximate
Thu 05:55:00 PM 39.8551 -74.3607 30° Northeast  Level FlightAware Approximate
Thu 05:56:00 PM 39.8828 -74.3396 30° Northeast  Level FlightAware Approximate
Thu 05:56:17 PM 39.9667 -74.3000 46° Northeast 128 147 7,000  Level New York TRACON
Thu 05:57:00 PM 39.9105 -74.3185 30° Northeast  Level FlightAware Approximate
Thu 05:57:17 PM 39.9833 -74.2667 57° Northeast 129 148 7,000  Level New York TRACON
Thu 05:58:00 PM 39.9382 -74.2973 30° Northeast  Level FlightAware Approximate
Thu 05:58:17 PM 40.0167 -74.2333 37° Northeast 131 151 7,000  Level New York TRACON
Thu 05:59:00 PM 39.9586 -74.2650 37° Northeast  Level Estimated
Thu 05:59:17 PM 40.0500 -74.2000 37° Northeast 129 148 7,000  Level New York TRACON
Thu 06:00:00 PM 39.9873 -74.2465 26° Northeast  Level FlightAware Approximate
Thu 06:00:17 PM 40.0833 -74.1833 21° North 133 153 7,000  Level New York TRACON
Thu 06:01:00 PM 40.0074 -74.2139 46° Northeast  Level Estimated
Thu 06:01:17 PM 40.1167 -74.1500 37° Northeast 135 155 7,000  Level New York TRACON
Thu 06:02:17 PM 40.1500 -74.1333 21° North 136 157 7,000  Level New York TRACON
Thu 06:03:17 PM 40.1667 -74.1167 37° Northeast 133 153 7,000 -48 Level New York TRACON
Thu 06:04:23 PM 40.2167 -74.0833 27° Northeast 134 154 6,900  Descending New York TRACON
Thu 06:05:23 PM 40.2333 -74.0667 37° Northeast 134 154 7,000  Climbing New York TRACON
Thu 06:06:23 PM 40.2667 -74.0333 37° Northeast 135 155 6,900  Descending New York TRACON
Thu 06:07:23 PM 40.3000 -74.0167 21° North 134 154 7,000  Climbing New York TRACON
Thu 06:08:23 PM 40.3333 -73.9833 37° Northeast 137 158 6,900  Descending New York TRACON
Thu 06:09:23 PM 40.3667 -73.9667 21° North 132 152 7,000 53 Climbing New York TRACON
Thu 06:10:17 PM 40.4000 -73.9333 37° Northeast 133 153 7,000  Level New York TRACON
Thu 06:11:17 PM 40.4333 -73.9167 21° North 135 155 7,000  Level New York TRACON
Thu 06:12:17 PM 40.4667 -73.9000 21° North 140 161 7,000  Level New York TRACON
Thu 06:13:17 PM 40.5000 -73.8667 37° Northeast 133 153 7,000  Level New York TRACON
Thu 06:14:17 PM 40.5333 -73.8500 21° North 134 154 7,000  Level New York TRACON
Thu 06:15:17 PM 40.5667 -73.8167 37° Northeast 126 145 7,000  Level New York TRACON
Thu 06:16:17 PM 40.5667 -73.7833 90° East 120 138 7,000 -53 Level New York TRACON
Thu 06:17:11 PM 40.5833 -73.7500 57° Northeast 125 144 6,900  Descending New York TRACON
Thu 06:18:11 PM 40.6000 -73.7000 66° East 125 144 7,000  Climbing New York TRACON
Thu 06:19:11 PM 40.6167 -73.6667 57° Northeast 122 140 6,900 -50 Descending New York TRACON
Thu 06:20:11 PM 40.6333 -73.6333 57° Northeast 119 137 6,900  Level New York TRACON
Thu 06:21:11 PM 40.6500 -73.5833 66° East 118 136 6,900 -150 Level New York TRACON
Thu 06:22:11 PM 40.6667 -73.5500 57° Northeast 127 146 6,600 -400 Descending New York TRACON
Thu 06:23:11 PM 40.6667 -73.5000 90° East 119 137 6,100 -476 Descending New York TRACON
Thu 06:24:17 PM 40.6667 -73.4500 90° East 118 136 5,600 -450 Descending New York TRACON
Thu 06:25:11 PM 40.6667 -73.4167 90° East 121 139 5,200 -421 Descending New York TRACON
Thu 06:26:11 PM 40.6667 -73.3667 90° East 118 136 4,800 -429 Descending New York TRACON
Thu 06:27:17 PM 40.6667 -73.3333 90° East 113 130 4,300 -400 Descending New York TRACON
Thu 06:28:11 PM 40.6667 -73.3000 90° East 114 131 4,000 -368 Descending New York TRACON
Thu 06:29:11 PM 40.6667 -73.2500 90° East 110 127 3,600 -450 Descending New York TRACON
Thu 06:30:11 PM 40.6667 -73.2167 90° East 107 123 3,100 -524 Descending New York TRACON
Thu 06:31:17 PM 40.6667 -73.1667 90° East 111 128 2,500 -429 Descending New York TRACON
Thu 06:32:17 PM 40.6667 -73.1333 90° East 103 119 2,200 -200 Descending New York TRACON
Thu 06:33:17 PM 40.6667 -73.1000 90° East 103 119 2,100 -50 Descending New York TRACON
Thu 06:34:17 PM 40.6667 -73.0500 90° East 112 129 2,100  Level New York TRACON
Thu 06:35:17 PM 40.6667 -73.0167 90° East 120 138 2,100  Level New York TRACON
Thu 06:36:17 PM 40.7000 -72.9833 37° Northeast 124 143 2,100  Level New York TRACON

Login

Don't have an account? Register now (free) for customized features, flight alerts, and more!